< < Back
Terminal Aerodrome Forecast


Current Version              Previous Versions:   1  2  3  4  5  6  7  8  9  

Terminal Aerodrome Forecast

000
FTUS44 KOHX 291729
TAFCSV
TAF
KCSV 291729Z 2918/3018 25009KT P6SM VCTS SCT025CB BKN035
      TEMPO 2918/2922 2SM +TSRA BKN020CB OVC035
     FM300100 23003KT P6SM SCT050 BKN100
     FM300600 21002KT 2SM BR BKN005=

Latest METAR

850
SAUS70 KWBC 300500 RRM
MTRCSV
METAR KCSV 300453Z AUTO 16003KT 10SM BKN027 21/20 A3004 RMK AO2 LTG DSNT
NW RAB04E13 SLP151 P0000 T02110200


USA.gov is the U.S. government's official web portal to all federal, state and local government web resources and services.